ADDS METAR Data INFO
IDs: Format: Raw Decoded Include TAF

Data at: 1908 UTC 21 Apr 2018

KTKI 211853Z 14009KT 3SM -RA BR BKN005 BKN010 OVC018 15/15 A2996 RMK AO2 SLP151 P0005 T01500150
KTKI 211801Z 14004KT 3SM -RA BR BKN008 BKN012 OVC018 14/14 A2997 RMK AO2 LTG DSNT E AND SE CIG 006V010 P0001 T01440144
KTKI 211753Z 15005KT 3SM -RA BR BKN012 BKN019 OVC030 14/14 A2998 RMK AO2 LTG DSNT E AND SE TSB22E37 SLP157 P0010 60015 T01440144 10167 20117 50001
KTKI 211750Z 16005KT 3SM -RA BR BKN012 BKN019 OVC030 14/14 A2998 RMK AO2 LTG DSNT E AND SE TSB22E37 P0010
KTKI 211743Z 17005KT 2SM -RA BR SCT015 BKN020 OVC030 14/14 A2998 RMK AO2 LTG DSNT NE-S TSB22E37 P0010 T01440144
KTKI 211737Z 13006KT 1 3/4SM -RA BR FEW015 BKN021 OVC030 14/14 A2997 RMK AO2 LTG DSNT NE-S TSB22E37 P0009 T01440144
KTKI 211728Z 14005KT 2 1/2SM -TSRA BR BKN021 OVC026 14/14 A2998 RMK AO2 LTG DSNT E-S TSB22 P0006 T01440139
KTKI 211653Z 19009KT 3SM RA BR OVC026 15/13 A2999 RMK AO2 LTG DSNT ALQDS RAB21 SLP159 P0005 T01500133
KTKI 211553Z 15012KT 10SM OVC027 17/11 A2998 RMK AO2 LTG DSNT W-N SLP154 T01670111
KTKI 211505Z 14014G24KT 10SM BKN025 OVC033 16/11 A2997 RMK AO2 T01610106
KTKI 211453Z 15018G22KT 10SM SCT026 BKN033 OVC050 17/11 A2997 RMK AO2 SLP154 T01670111 58012
KTKI 211353Z 12013G21KT 10SM BKN110 15/09 A2998 RMK AO2 SLP157 T01500094
KTKI 211253Z 13010KT 10SM CLR 13/09 A3001 RMK AO2 SLP167 T01280089
KTKI 211153Z 13011KT 10SM CLR 12/09 A3001 RMK AO2 SLP167 T01170089 10139 20117 58021
KTKI 211053Z 12007KT 10SM FEW060 12/09 A3004 RMK AO2 SLP175 T01170089
KTKI 210953Z AUTO 12005KT 10SM OVC060 13/09 A3008 RMK AO2 SLP188 T01280089
KTKI 210853Z AUTO 13004KT 10SM OVC050 13/09 A3008 RMK AO2 SLP188 T01330089 58007
KTKI 210753Z AUTO 14008KT 10SM OVC055 14/08 A3009 RMK AO2 SLP192 T01390083
KTKI 210653Z AUTO 14009KT 10SM SCT055 13/08 A3010 RMK AO2 SLP195 T01330083
KTKI 210553Z AUTO 13007KT 10SM CLR 13/08 A3010 RMK AO2 SLP196 T01280078 10183 20128 401940083 50005
KTKI 210453Z AUTO 12006KT 10SM CLR 13/08 A3010 RMK AO2 SLP199 T01330078
KTKI 210353Z AUTO 12008KT 10SM CLR 14/08 A3009 RMK AO2 SLP195 T01440078
KTKI 210253Z AUTO 13010KT 10SM CLR 15/07 A3008 RMK AO2 SLP191 T01500072 55002
KTKI 210153Z 13008KT 10SM CLR 16/07 A3007 RMK AO2 SLP188 T01610067
KTKI 210053Z 13008KT 10SM CLR 17/06 A3008 RMK AO2 SLP192 T01720061
KTKI 202353Z 12010KT 10SM CLR 18/06 A3009 RMK AO2 SLP193 T01830061 10194 20161 56018
KTKI 202253Z 14012G18KT 10SM CLR 19/06 A3010 RMK AO2 SLP196 T01890056
KTKI 202153Z 13014G19KT 10SM CLR 19/06 A3011 RMK AO2 SLP201 T01890056
KTKI 202053Z 10013G22KT 10SM CLR 18/05 A3014 RMK AO2 SLP211 T01830050 56042
KTKI 201953Z 15015G23KT 10SM CLR 18/04 A3019 RMK AO2 SLP227 T01830044
KTKI 201853Z 11011G18KT 10SM CLR 18/04 A3021 RMK AO2 SLP237 T01780039
KTKI 201753Z 14010KT 10SM CLR 17/04 A3026 RMK AO2 SLP254 T01670039 10167 20083 58019
KTKI 201653Z 11009KT 10SM CLR 15/03 A3030 RMK AO2 SLP265 T01500033
KTKI 201553Z 12011KT 10SM CLR 13/02 A3032 RMK AO2 SLP272 T01330022
KTKI 201453Z 09015G20KT 10SM CLR 12/02 A3032 RMK AO2 SLP274 T01170017 53006
KTKI 201353Z 11013KT 10SM CLR 10/03 A3031 RMK AO2 SLP272 T01000028
KTKI 201253Z 09008KT 10SM CLR 09/03 A3030 RMK AO2 SLP269 T00890033
KTKI 201153Z 10006KT 10SM CLR 08/04 A3030 RMK AO2 SLP267 T00830044 10106 20083 53006
KTKI 201053Z AUTO 11006KT 10SM CLR 09/04 A3029 RMK AO2 SLP261 T00940044
KTKI 200953Z AUTO 11008KT 10SM CLR 10/05 A3028 RMK AO2 SLP260 T01000050
KTKI 200853Z AUTO 08004KT 10SM CLR 09/04 A3028 RMK AO2 SLP260 T00940044 53003
KTKI 200753Z AUTO 09005KT 10SM CLR 09/04 A3027 RMK AO2 SLP254 T00940044